Aeroporto :
LOGIN :

Iscrizione | Disclaimer

   EN    FR    IT 

 










Sommario :    VFR   VFR Marginale   IFR   IFR Intensivo   IFR Molto Intensivo
Visibilità : 
Base nubi : 
>= 8 km
>= 3000ft
5 / 8 km
1000 / 3000 ft
1500m / 5 km
500 / 1000 ft
800 / 1500m
200 / 500 ft
< 800m
< 200 ft
Simboli :   Temporali  Nebbia  Neve Forte  Precipitazioni Forti  Vento > 20 kt
SIGMETs :   Varie  Temporali  Ghiacco  Turbolenza  Onda orograficha  Ceneri Vulcaniche






- Altitudine del aeroporto : 741 ft
- Codice IATA : PED


LKPD - Pardubice AB

ULTIMO METAR :
  • 190100Z 00000KT 0400 R27/1100N FG VV002 01/01 Q1026 RMK RED

METARs OBSOLETI :
  • 190000Z 11001KT 0400 R27/1000N FG VV002 01/01 Q1026 RMK RED
  • 182300Z VRB01KT 0400 R27/0800N FG VV002 01/01 Q1026 RMK RED

TAF TAF LKPD
Valido dal 19 a 00 ore il 20 a 00 ore UTC


182300Z 1900/2000 VRB02KT 0500 FZFG VV001
BECMG 1900/1902 27006KT
TEMPO 1900/1908 3000 BR OVC004
BECMG 1908/1910 4000 BR BKN010
BECMG 1912/1914 7000 NSW BKN015
PROB40
TEMPO 1915/1922 3000 SN BR BKN007



MetMap, La meteo Aeronautica in un colpo d'occhio ! - Copyright ORBIFLY Dicembre 2007 - Disclaimer

ORBIFLY MET'MAP TEAM :

Programmazione e sviluppo : Alexandra Zaïnal
Concezione : Baudouin d'Aumeries
Aiuto per la programmazione : Marc-Olivier Méhu
Supporto tecnico e logistico : Manuel Goepfert
Aiuto per la traduzione : Arnaldo La Scala

Contatto : metmap@orbifly.com




FONTI E CREDITI :

   NOAA